メインページ
METAR-TAF:

METAR-TAF

空港 :

帯広空港

帯広, 日本

緯度: 42-44N, 経度: 143-13E, 海抜: 149m

現時点の気象観測

当レポートは48分前の11:00(UTC)に作成
南/南東の風 3kt、南東から南/南西の間で変化する
気温 9°C
湿度 61%
気圧 1016 hPa
視程10km以上
高度6000ftの雲はほとんどない

METAR: RJCB 201100Z 15003KT 130V200 9999 FEW060 09/02 Q1016

時間: 20:48 (11:48 UTC)

予報

当レポートは42分前の11:06(UTC)に作成
予報は20日の 12時(UTC)から 21日の 18時(UTC)まで有効
南東の風 5kt
視程10km以上
高度4000ftの雲はほとんどない
20日の 13時(UTC)から 20日の 15時(UTC)まで徐々に
北東の風 3kt
21日の 00時(UTC)から 21日の 03時(UTC)まで徐々に
南/南東の風 5kt

TAF: RJCB 201106Z 2012/2118 14005KT 9999 FEW040 BECMG 2013/2015 04003KT BECMG 2100/2103 16005KT

4,000以上の空港の気象観測と天気予報(METAR報とTAF報)

利用可能な観測所は地図上に黄色い丸と赤い丸で示す。

丸の上にカーソルを重ねると観測所名を参照できる。

次にクリックすると気象観測と天気予報を参照できる。

マップの切り替え:黒色「×」印の緑ボタンをクリックして拡大、「-」印の緑ボタンをクリックして縮小、緑色の三角印をクリックして隣りの地図に切り替え


METAR-TAF: